createdAt,value
2019-05-26T00:00:51.046Z,99.90
2019-05-26T00:03:24.013Z,99.90
2019-05-26T00:05:57.455Z,99.90
2019-05-26T00:08:30.349Z,99.90
2019-05-26T00:11:03.691Z,99.90
2019-05-26T00:13:37.809Z,99.90
2019-05-26T00:16:10.689Z,99.90
2019-05-26T00:18:43.914Z,99.90
2019-05-26T00:21:16.858Z,99.90
2019-05-26T00:23:49.894Z,99.90
2019-05-26T00:26:22.961Z,99.90
2019-05-26T00:28:55.976Z,99.90
2019-05-26T00:31:28.567Z,99.90
2019-05-26T00:34:01.508Z,99.90
2019-05-26T00:36:34.741Z,99.90
2019-05-26T00:39:09.542Z,99.90
2019-05-26T00:41:42.511Z,99.90
2019-05-26T00:44:15.559Z,99.90
2019-05-26T00:46:48.568Z,99.90
2019-05-26T00:49:21.489Z,99.90
2019-05-26T00:51:54.631Z,99.90
2019-05-26T00:54:27.687Z,99.90
2019-05-26T00:57:01.113Z,99.90
2019-05-26T00:59:33.996Z,99.90
2019-05-26T01:02:06.911Z,99.90
2019-05-26T01:04:39.879Z,99.90
2019-05-26T01:07:15.084Z,99.90
2019-05-26T01:09:48.259Z,99.90
2019-05-26T01:12:21.441Z,99.90
2019-05-26T01:14:56.439Z,99.90
2019-05-26T01:17:29.532Z,99.90
2019-05-26T01:20:02.498Z,99.90
2019-05-26T01:22:35.526Z,99.90
2019-05-26T01:25:09.503Z,99.90
2019-05-26T01:27:42.265Z,99.90
2019-05-26T01:30:15.640Z,99.90
2019-05-26T01:32:49.546Z,99.90
2019-05-26T01:35:22.257Z,99.90
2019-05-26T01:37:55.235Z,99.90
2019-05-26T01:40:42.610Z,99.90
2019-05-26T01:43:15.357Z,99.90
2019-05-26T01:45:48.518Z,99.90
2019-05-26T01:48:21.664Z,99.90
2019-05-26T01:50:54.927Z,99.90
2019-05-26T01:53:27.916Z,99.90
2019-05-26T01:56:01.043Z,99.90
2019-05-26T01:58:33.999Z,99.90
2019-05-26T02:01:07.016Z,99.90
2019-05-26T02:03:41.264Z,99.90
2019-05-26T02:06:13.949Z,99.90
2019-05-26T02:08:46.976Z,99.90
2019-05-26T02:11:19.928Z,99.90
2019-05-26T02:13:52.858Z,99.90
2019-05-26T02:16:25.658Z,99.90
2019-05-26T02:18:58.814Z,99.90
2019-05-26T02:21:32.006Z,99.90
2019-05-26T02:24:04.988Z,99.90
2019-05-26T02:26:37.886Z,99.90
2019-05-26T02:29:10.846Z,99.90
2019-05-26T02:31:43.813Z,99.90
2019-05-26T02:34:16.757Z,99.90
2019-05-26T02:36:49.587Z,99.90
2019-05-26T02:39:22.511Z,99.90
2019-05-26T02:41:55.428Z,99.90
2019-05-26T02:44:28.615Z,99.90
2019-05-26T02:47:01.435Z,99.90
2019-05-26T02:49:34.446Z,99.90
2019-05-26T02:52:07.334Z,99.90
2019-05-26T02:54:40.124Z,99.90
2019-05-26T02:57:12.903Z,99.90
2019-05-26T02:59:45.720Z,99.90
2019-05-26T03:02:18.555Z,99.90
2019-05-26T03:04:51.522Z,99.90
2019-05-26T03:07:29.293Z,99.90
2019-05-26T03:10:07.040Z,99.90
2019-05-26T03:12:44.031Z,99.90
2019-05-26T03:15:20.994Z,99.90
2019-05-26T03:18:00.436Z,99.90
2019-05-26T03:20:42.342Z,99.90
2019-05-26T03:23:19.467Z,99.90
2019-05-26T03:25:55.766Z,99.90
2019-05-26T03:28:34.381Z,99.90
2019-05-26T03:31:11.274Z,99.90
2019-05-26T03:33:47.850Z,99.90
2019-05-26T03:36:24.213Z,99.90
2019-05-26T03:39:00.576Z,99.90
2019-05-26T03:41:36.994Z,99.90
2019-05-26T03:44:14.888Z,99.90
2019-05-26T03:46:52.544Z,99.90
2019-05-26T03:49:33.441Z,99.90
2019-05-26T03:52:07.640Z,99.90
2019-05-26T03:54:45.381Z,99.90
2019-05-26T03:57:22.291Z,99.90
2019-05-26T03:59:56.200Z,99.90
2019-05-26T04:02:34.190Z,99.90
2019-05-26T04:05:10.770Z,99.90
2019-05-26T04:07:50.588Z,99.90
2019-05-26T04:10:29.161Z,99.90
2019-05-26T04:13:16.200Z,99.90
2019-05-26T04:15:55.326Z,99.90
2019-05-26T04:18:33.062Z,99.90
2019-05-26T04:21:07.483Z,99.90
2019-05-26T04:23:45.132Z,99.90
2019-05-26T04:26:23.193Z,99.90
2019-05-26T04:29:06.384Z,99.90
2019-05-26T04:31:45.101Z,99.90
2019-05-26T04:34:25.968Z,99.90
2019-05-26T04:37:04.721Z,99.90
2019-05-26T04:39:42.687Z,99.90
2019-05-26T04:42:20.539Z,99.90
2019-05-26T04:45:00.639Z,99.90
2019-05-26T04:47:35.464Z,99.90
2019-05-26T04:50:13.947Z,99.90
2019-05-26T04:53:10.285Z,99.90
2019-05-26T04:55:47.253Z,99.90
2019-05-26T04:58:22.473Z,99.90
2019-05-26T05:00:59.411Z,99.90
2019-05-26T05:03:39.301Z,99.90
2019-05-26T05:06:16.577Z,99.90
2019-05-26T05:08:55.623Z,99.90
2019-05-26T05:11:30.130Z,99.90
2019-05-26T05:14:25.633Z,99.90
2019-05-26T05:17:14.069Z,99.90
2019-05-26T05:19:47.072Z,99.90
2019-05-26T05:22:25.100Z,99.90
2019-05-26T05:25:01.593Z,99.90
2019-05-26T05:27:38.803Z,99.90
2019-05-26T05:30:16.906Z,99.90
2019-05-26T05:32:55.353Z,99.90
2019-05-26T05:35:31.730Z,99.90
2019-05-26T05:38:10.008Z,99.90
2019-05-26T05:40:58.887Z,99.90
2019-05-26T05:43:26.083Z,99.90
2019-05-26T05:46:07.429Z,99.90
2019-05-26T05:48:45.824Z,99.90
2019-05-26T05:51:22.742Z,99.90
2019-05-26T05:54:00.714Z,99.90
2019-05-26T05:56:38.133Z,99.90
2019-05-26T05:59:14.291Z,99.90
2019-05-26T06:01:53.473Z,99.90
2019-05-26T06:04:31.761Z,99.90
2019-05-26T06:07:09.850Z,99.90
2019-05-26T06:09:48.143Z,99.90
2019-05-26T06:12:21.501Z,99.40
2019-05-26T06:14:56.943Z,99.60
2019-05-26T06:17:39.395Z,99.50
2019-05-26T06:20:13.748Z,99.20
2019-05-26T06:22:46.884Z,99.20
2019-05-26T06:25:20.474Z,99.10
2019-05-26T06:27:53.600Z,98.70
2019-05-26T06:30:26.978Z,99.40
2019-05-26T06:33:02.500Z,98.10
2019-05-26T06:35:35.604Z,99.00
2019-05-26T06:38:08.596Z,98.50
2019-05-26T06:40:41.321Z,97.20
2019-05-26T06:43:17.075Z,98.00
2019-05-26T06:45:52.606Z,96.60
2019-05-26T06:48:26.875Z,95.20
2019-05-26T06:51:00.220Z,95.10
2019-05-26T06:53:36.578Z,95.10
2019-05-26T06:56:09.141Z,94.90
2019-05-26T06:58:45.360Z,94.60
2019-05-26T07:01:19.172Z,95.50
2019-05-26T07:03:52.595Z,95.10
2019-05-26T07:06:25.886Z,94.50
2019-05-26T07:09:01.961Z,94.00
2019-05-26T07:11:50.113Z,92.70
2019-05-26T07:14:09.348Z,93.00
2019-05-26T07:16:41.647Z,92.90
2019-05-26T07:19:14.152Z,93.20
2019-05-26T07:21:46.349Z,92.70
2019-05-26T07:24:18.446Z,92.50
2019-05-26T07:26:50.764Z,93.60
2019-05-26T07:29:23.243Z,93.10
2019-05-26T07:31:55.224Z,91.00
2019-05-26T07:34:27.347Z,90.90
2019-05-26T07:36:59.631Z,91.50
2019-05-26T07:39:31.952Z,91.10
2019-05-26T07:42:10.718Z,90.60
2019-05-26T07:44:38.270Z,91.20
2019-05-26T07:47:10.618Z,90.30
2019-05-26T07:49:42.987Z,90.00
2019-05-26T07:52:15.385Z,91.40
2019-05-26T07:54:47.555Z,90.30
2019-05-26T07:57:19.888Z,88.80
2019-05-26T07:59:52.288Z,87.20
2019-05-26T08:02:24.471Z,90.20
2019-05-26T08:04:57.014Z,88.80
2019-05-26T08:07:29.222Z,85.00
2019-05-26T08:10:01.575Z,87.20
2019-05-26T08:12:33.761Z,84.90
2019-05-26T08:15:07.041Z,85.70
2019-05-26T08:17:39.263Z,83.50
2019-05-26T08:20:14.715Z,84.80
2019-05-26T08:22:47.040Z,83.70
2019-05-26T08:25:19.508Z,83.30
2019-05-26T08:27:51.717Z,81.60
2019-05-26T08:30:24.373Z,81.20
2019-05-26T08:32:56.569Z,81.10
2019-05-26T08:35:28.689Z,81.60
2019-05-26T08:38:00.848Z,80.90
2019-05-26T08:40:32.897Z,80.80
2019-05-26T08:43:05.295Z,80.90
2019-05-26T08:45:37.655Z,79.20
2019-05-26T08:48:09.734Z,81.90
2019-05-26T08:50:41.958Z,79.10
2019-05-26T08:53:14.116Z,81.40
2019-05-26T08:55:46.494Z,79.70
2019-05-26T08:58:18.671Z,77.70
2019-05-26T09:00:51.080Z,80.60
2019-05-26T09:03:23.231Z,79.50
2019-05-26T09:05:55.424Z,79.20
2019-05-26T09:08:27.626Z,78.10
2019-05-26T09:11:00.056Z,75.20
2019-05-26T09:13:32.433Z,75.60
2019-05-26T09:16:06.136Z,70.60
2019-05-26T09:18:38.364Z,72.00
2019-05-26T09:21:10.551Z,70.60
2019-05-26T09:23:42.646Z,74.60
2019-05-26T09:26:15.108Z,71.50
2019-05-26T09:28:47.234Z,70.80
2019-05-26T09:31:19.534Z,72.50
2019-05-26T09:33:52.018Z,68.40
2019-05-26T09:36:25.236Z,70.70
2019-05-26T09:38:57.732Z,66.40
2019-05-26T09:41:34.517Z,64.60
2019-05-26T09:44:07.319Z,63.90
2019-05-26T09:46:39.580Z,65.40
2019-05-26T09:49:11.819Z,66.70
2019-05-26T09:51:44.016Z,63.40
2019-05-26T09:54:16.195Z,58.90
2019-05-26T09:56:48.569Z,61.30
2019-05-26T09:59:21.939Z,60.60
2019-05-26T10:01:54.294Z,61.50
2019-05-26T10:04:26.458Z,62.10
2019-05-26T10:06:58.693Z,58.10
2019-05-26T10:09:31.023Z,58.50
2019-05-26T10:12:03.473Z,59.70
2019-05-26T10:14:35.708Z,60.60
2019-05-26T10:17:08.318Z,58.10
2019-05-26T10:19:40.783Z,58.80
2019-05-26T10:22:13.104Z,59.00
2019-05-26T10:24:45.394Z,56.20
2019-05-26T10:27:17.707Z,56.60
2019-05-26T10:29:50.007Z,56.90
2019-05-26T10:32:22.203Z,56.50
2019-05-26T10:34:54.497Z,55.50
2019-05-26T10:37:26.970Z,55.30
2019-05-26T10:39:59.263Z,54.60
2019-05-26T10:42:31.561Z,52.00
2019-05-26T10:45:03.889Z,54.40
2019-05-26T10:47:36.313Z,54.70
2019-05-26T10:50:09.210Z,53.50
2019-05-26T10:52:41.883Z,54.90
2019-05-26T10:55:16.049Z,54.10
2019-05-26T10:57:51.530Z,54.20
2019-05-26T11:00:24.449Z,53.60
2019-05-26T11:02:57.159Z,55.50
2019-05-26T11:05:29.712Z,56.00
2019-05-26T11:08:02.245Z,54.90
2019-05-26T11:10:34.901Z,53.30
2019-05-26T11:13:07.804Z,52.60
2019-05-26T11:15:40.433Z,52.00
2019-05-26T11:18:12.833Z,53.20
2019-05-26T11:20:45.539Z,53.90
2019-05-26T11:23:18.083Z,51.90
2019-05-26T11:25:53.600Z,53.50
2019-05-26T11:28:25.888Z,52.80
2019-05-26T11:30:58.416Z,50.90
2019-05-26T11:33:31.058Z,49.10
2019-05-26T11:36:03.583Z,48.10
2019-05-26T11:38:36.304Z,49.20
2019-05-26T11:41:08.622Z,48.80
2019-05-26T11:43:41.013Z,51.60
2019-05-26T11:46:16.412Z,50.20
2019-05-26T11:48:47.252Z,50.70
2019-05-26T11:51:19.957Z,50.10
2019-05-26T11:53:52.860Z,49.80
2019-05-26T11:56:25.480Z,50.10
2019-05-26T11:58:58.072Z,51.80
2019-05-26T12:01:30.702Z,50.50
2019-05-26T12:04:03.591Z,51.10
2019-05-26T12:06:40.779Z,51.50
2019-05-26T12:09:13.638Z,48.90
2019-05-26T12:11:45.995Z,47.80
2019-05-26T12:14:33.732Z,48.90
2019-05-26T12:16:52.730Z,49.20
2019-05-26T12:19:25.299Z,50.70
2019-05-26T12:21:57.546Z,49.30
2019-05-26T12:24:29.939Z,49.70
2019-05-26T12:27:02.567Z,50.30
2019-05-26T12:29:34.888Z,49.70
2019-05-26T12:32:07.825Z,49.60
2019-05-26T12:34:40.408Z,49.80
2019-05-26T12:37:13.032Z,49.20
2019-05-26T12:39:45.762Z,48.90
2019-05-26T12:42:18.159Z,47.80
2019-05-26T12:44:50.847Z,49.50
2019-05-26T12:47:23.413Z,48.60
2019-05-26T12:49:55.772Z,50.40
2019-05-26T12:52:28.174Z,49.00
2019-05-26T12:55:00.573Z,50.30
2019-05-26T12:57:32.789Z,49.70
2019-05-26T13:00:05.669Z,50.40
2019-05-26T13:02:38.236Z,49.20
2019-05-26T13:05:11.637Z,51.80
2019-05-26T13:07:44.306Z,48.10
2019-05-26T13:10:18.255Z,49.20
2019-05-26T13:12:50.609Z,49.40
2019-05-26T13:15:24.480Z,52.30
2019-05-26T13:17:56.885Z,51.50
2019-05-26T13:20:29.749Z,49.40
2019-05-26T13:23:02.185Z,52.00
2019-05-26T13:25:34.822Z,48.30
2019-05-26T13:28:07.557Z,49.70
2019-05-26T13:30:41.322Z,51.60
2019-05-26T13:33:13.640Z,52.20
2019-05-26T13:35:46.297Z,52.10
2019-05-26T13:38:18.861Z,50.10
2019-05-26T13:40:51.592Z,50.00
2019-05-26T13:43:24.152Z,48.20
2019-05-26T13:45:57.586Z,49.90
2019-05-26T13:48:29.914Z,47.70
2019-05-26T13:51:02.343Z,48.20
2019-05-26T13:53:34.968Z,48.60
2019-05-26T13:56:07.518Z,47.40
2019-05-26T13:58:40.312Z,47.30
2019-05-26T14:01:12.899Z,49.70
2019-05-26T14:03:45.610Z,47.50
2019-05-26T14:06:17.958Z,48.60
2019-05-26T14:08:50.700Z,48.40
2019-05-26T14:11:23.283Z,49.20
2019-05-26T14:13:56.206Z,48.40
2019-05-26T14:16:31.968Z,49.50
2019-05-26T14:19:06.274Z,49.00
2019-05-26T14:21:38.478Z,47.50
2019-05-26T14:24:12.972Z,49.30
2019-05-26T14:26:45.620Z,49.60
2019-05-26T14:29:19.442Z,48.80
2019-05-26T14:31:52.897Z,50.20
2019-05-26T14:34:25.583Z,49.40
2019-05-26T14:36:57.913Z,47.00
2019-05-26T14:39:30.230Z,45.00
2019-05-26T14:42:02.918Z,42.40
2019-05-26T14:44:35.308Z,41.30
2019-05-26T14:47:07.936Z,44.00
2019-05-26T14:49:40.570Z,44.70
2019-05-26T14:52:12.800Z,43.30
2019-05-26T14:54:45.345Z,45.30
2019-05-26T14:57:17.740Z,44.90
2019-05-26T14:59:50.322Z,43.80
2019-05-26T15:02:22.661Z,43.90
2019-05-26T15:04:54.996Z,43.20
2019-05-26T15:07:27.308Z,44.20
2019-05-26T15:09:59.560Z,43.50
2019-05-26T15:12:32.001Z,44.40
2019-05-26T15:15:04.424Z,43.70
2019-05-26T15:17:37.058Z,44.30
2019-05-26T15:20:12.224Z,45.20
2019-05-26T15:22:44.604Z,45.70
2019-05-26T15:25:17.369Z,46.00
2019-05-26T15:27:50.220Z,48.60
2019-05-26T15:30:23.056Z,45.60
2019-05-26T15:32:55.470Z,46.20
2019-05-26T15:35:27.977Z,49.60
2019-05-26T15:38:00.389Z,50.00
2019-05-26T15:40:32.638Z,51.50
2019-05-26T15:43:05.065Z,53.00
2019-05-26T15:45:37.606Z,51.30
2019-05-26T15:48:10.119Z,51.10
2019-05-26T15:50:42.537Z,48.20
2019-05-26T15:53:15.116Z,50.40
2019-05-26T15:55:47.648Z,50.70
2019-05-26T15:58:20.169Z,54.90
2019-05-26T16:00:53.907Z,54.20
2019-05-26T16:03:26.446Z,54.60
2019-05-26T16:05:58.771Z,52.90
2019-05-26T16:08:31.042Z,55.00
2019-05-26T16:11:03.307Z,56.20
2019-05-26T16:13:36.068Z,55.70
2019-05-26T16:16:08.318Z,55.50
2019-05-26T16:18:40.813Z,55.60
2019-05-26T16:21:27.078Z,55.30
2019-05-26T16:23:47.003Z,56.20
2019-05-26T16:26:19.337Z,56.50
2019-05-26T16:28:51.888Z,57.50
2019-05-26T16:31:24.471Z,58.40
2019-05-26T16:33:56.890Z,58.40
2019-05-26T16:36:29.249Z,58.80
2019-05-26T16:39:01.616Z,59.10
2019-05-26T16:41:33.987Z,58.80
2019-05-26T16:44:06.684Z,59.20
2019-05-26T16:46:39.081Z,59.50
2019-05-26T16:49:11.445Z,59.70
2019-05-26T16:51:43.784Z,60.20
2019-05-26T16:54:16.320Z,61.20
2019-05-26T16:56:48.931Z,61.40
2019-05-26T16:59:21.577Z,61.60
2019-05-26T17:01:55.392Z,62.60
2019-05-26T17:04:32.470Z,63.40
2019-05-26T17:07:04.878Z,64.60
2019-05-26T17:09:37.225Z,66.50
2019-05-26T17:12:09.639Z,64.70
2019-05-26T17:14:43.560Z,67.50
2019-05-26T17:17:15.891Z,66.90
2019-05-26T17:19:48.437Z,65.70
2019-05-26T17:22:20.877Z,68.50
2019-05-26T17:24:53.146Z,67.90
2019-05-26T17:27:25.449Z,67.40
2019-05-26T17:29:59.407Z,66.90
2019-05-26T17:32:33.546Z,67.90
2019-05-26T17:35:08.408Z,68.50
2019-05-26T17:37:40.459Z,68.20
2019-05-26T17:40:12.674Z,68.10
2019-05-26T17:42:45.119Z,68.50
2019-05-26T17:45:17.838Z,68.80
2019-05-26T17:47:50.009Z,69.60
2019-05-26T17:50:22.990Z,69.90
2019-05-26T17:52:55.464Z,71.30
2019-05-26T17:55:27.789Z,70.80
2019-05-26T17:57:59.917Z,70.70
2019-05-26T18:00:32.553Z,71.30
2019-05-26T18:03:04.949Z,72.90
2019-05-26T18:05:37.505Z,72.90
2019-05-26T18:08:09.878Z,73.30
2019-05-26T18:10:42.536Z,75.20
2019-05-26T18:13:15.151Z,75.80
2019-05-26T18:15:47.889Z,77.40
2019-05-26T18:18:20.365Z,77.50
2019-05-26T18:20:53.208Z,79.10
2019-05-26T18:23:25.977Z,80.00
2019-05-26T18:25:58.974Z,81.40
2019-05-26T18:28:31.534Z,82.40
2019-05-26T18:31:03.832Z,85.30
2019-05-26T18:33:36.560Z,86.20
2019-05-26T18:36:09.378Z,88.60
2019-05-26T18:38:42.527Z,90.10
2019-05-26T18:41:15.849Z,90.40
2019-05-26T18:43:49.118Z,90.80
2019-05-26T18:46:22.059Z,91.00
2019-05-26T18:48:55.174Z,91.00
2019-05-26T18:51:28.631Z,90.50
2019-05-26T18:54:04.434Z,89.30
2019-05-26T18:56:37.699Z,89.50
2019-05-26T18:59:11.054Z,87.90
2019-05-26T19:01:44.197Z,87.50
2019-05-26T19:04:17.511Z,87.90
2019-05-26T19:06:50.636Z,87.90
2019-05-26T19:09:23.307Z,88.30
2019-05-26T19:11:58.156Z,88.70
2019-05-26T19:14:32.907Z,88.20
2019-05-26T19:17:05.751Z,88.40
2019-05-26T19:19:38.447Z,88.10
2019-05-26T19:22:10.970Z,88.10
2019-05-26T19:24:43.823Z,88.10
2019-05-26T19:27:16.796Z,86.30
2019-05-26T19:29:49.232Z,85.90
2019-05-26T19:32:21.968Z,84.80
2019-05-26T19:34:54.808Z,84.90
2019-05-26T19:37:28.256Z,84.60
2019-05-26T19:40:01.794Z,84.90
2019-05-26T19:42:35.225Z,85.60
2019-05-26T19:45:08.860Z,84.90
2019-05-26T19:47:45.259Z,84.50
2019-05-26T19:50:25.488Z,84.40
2019-05-26T19:52:58.978Z,85.00
2019-05-26T19:55:36.166Z,84.90
2019-05-26T19:58:11.987Z,86.10
2019-05-26T20:00:45.080Z,86.70
2019-05-26T20:03:18.551Z,89.00
2019-05-26T20:05:56.052Z,90.10
2019-05-26T20:08:29.546Z,90.50
2019-05-26T20:11:05.476Z,90.30
2019-05-26T20:13:43.037Z,91.10
2019-05-26T20:16:17.709Z,92.00
2019-05-26T20:18:51.082Z,93.60
2019-05-26T20:21:23.940Z,93.20
2019-05-26T20:23:56.682Z,94.40
2019-05-26T20:26:29.658Z,93.60
2019-05-26T20:29:02.659Z,94.70
2019-05-26T20:31:35.628Z,94.70
2019-05-26T20:34:09.920Z,95.10
2019-05-26T20:36:42.930Z,94.10
2019-05-26T20:39:15.660Z,95.50
2019-05-26T20:41:48.532Z,95.60
2019-05-26T20:44:21.299Z,96.20
2019-05-26T20:46:54.182Z,96.20
2019-05-26T20:49:44.133Z,96.20
2019-05-26T20:52:01.590Z,96.50
2019-05-26T20:54:34.168Z,96.60
2019-05-26T21:00:26.874Z,96.90
2019-05-26T21:03:00.288Z,96.90
2019-05-26T21:05:33.481Z,97.40
2019-05-26T21:08:05.984Z,97.60
2019-05-26T21:10:38.583Z,98.10
2019-05-26T21:13:11.266Z,98.00
2019-05-26T21:15:44.022Z,98.50
2019-05-26T21:18:16.628Z,98.80
2019-05-26T21:20:49.113Z,99.00
2019-05-26T21:23:22.772Z,98.10
2019-05-26T21:25:55.864Z,98.40
2019-05-26T21:28:28.421Z,98.40
2019-05-26T21:31:01.025Z,98.20
2019-05-26T21:33:33.681Z,98.60
2019-05-26T21:36:06.567Z,98.90
2019-05-26T21:38:39.315Z,99.50
2019-05-26T21:41:11.954Z,99.30
2019-05-26T21:43:44.287Z,99.20
2019-05-26T21:46:17.322Z,99.10
2019-05-26T21:48:49.667Z,99.90
2019-05-26T21:51:22.427Z,99.90
2019-05-26T21:53:55.166Z,99.90
2019-05-26T21:56:27.935Z,99.90
2019-05-26T21:59:00.210Z,99.90
2019-05-26T22:01:33.185Z,99.90
2019-05-26T22:04:06.571Z,99.90
2019-05-26T22:06:39.449Z,99.90
2019-05-26T22:09:12.091Z,99.90
2019-05-26T22:11:44.901Z,99.90
2019-05-26T22:14:17.608Z,99.90
2019-05-26T22:16:50.418Z,99.90
2019-05-26T22:19:22.851Z,99.90
2019-05-26T22:21:55.333Z,99.90
2019-05-26T22:24:27.942Z,99.90
2019-05-26T22:27:00.648Z,99.90
2019-05-26T22:29:32.995Z,99.90
2019-05-26T22:32:05.379Z,99.90
2019-05-26T22:34:37.834Z,99.90
2019-05-26T22:37:10.334Z,99.90
2019-05-26T22:39:42.824Z,99.90
2019-05-26T22:42:15.490Z,99.90
2019-05-26T22:44:47.983Z,99.90
2019-05-26T22:47:20.521Z,99.90
2019-05-26T22:49:53.008Z,99.90
2019-05-26T22:52:25.607Z,99.90
2019-05-26T22:54:57.980Z,99.90
2019-05-26T22:57:30.535Z,99.90
2019-05-26T23:00:03.392Z,99.90
2019-05-26T23:02:36.013Z,99.90
2019-05-26T23:05:09.335Z,99.90
2019-05-26T23:07:41.637Z,99.90
2019-05-26T23:10:14.369Z,99.90
2019-05-26T23:12:46.959Z,99.90
2019-05-26T23:15:19.777Z,99.90
2019-05-26T23:17:52.391Z,99.90
2019-05-26T23:20:24.892Z,99.90
2019-05-26T23:22:57.629Z,99.90
2019-05-26T23:25:30.257Z,99.90
2019-05-26T23:28:02.887Z,99.90
2019-05-26T23:30:35.306Z,99.90
2019-05-26T23:33:07.787Z,99.90
2019-05-26T23:35:40.339Z,99.90
2019-05-26T23:38:12.776Z,99.90
2019-05-26T23:40:45.252Z,99.90
2019-05-26T23:43:17.689Z,99.90
2019-05-26T23:45:50.035Z,99.90
2019-05-26T23:48:22.339Z,99.90
2019-05-26T23:50:54.603Z,99.90
2019-05-26T23:53:27.106Z,99.90
2019-05-26T23:55:59.659Z,99.90
2019-05-26T23:58:32.301Z,99.90
